sensor_id;sensor_type;location;lat;lon;timestamp;temperature;humidity
5578;DHT22;2811;51.900;10.734;2024-02-28T00:02:02;5.10;99.90
5578;DHT22;2811;51.900;10.734;2024-02-28T00:04:29;5.00;99.90
5578;DHT22;2811;51.900;10.734;2024-02-28T00:06:55;5.00;99.90
5578;DHT22;2811;51.900;10.734;2024-02-28T00:09:22;5.00;99.90
5578;DHT22;2811;51.900;10.734;2024-02-28T00:11:48;4.90;99.90
5578;DHT22;2811;51.900;10.734;2024-02-28T00:14:16;4.90;99.90
5578;DHT22;2811;51.900;10.734;2024-02-28T00:16:44;5.00;99.90
5578;DHT22;2811;51.900;10.734;2024-02-28T00:19:11;5.30;99.90
5578;DHT22;2811;51.900;10.734;2024-02-28T00:21:39;5.50;99.90
5578;DHT22;2811;51.900;10.734;2024-02-28T00:24:06;5.70;99.90
5578;DHT22;2811;51.900;10.734;2024-02-28T00:26:33;5.50;99.90
5578;DHT22;2811;51.900;10.734;2024-02-28T00:29:00;5.20;99.90
5578;DHT22;2811;51.900;10.734;2024-02-28T00:31:28;5.00;99.90
5578;DHT22;2811;51.900;10.734;2024-02-28T00:33:55;4.90;99.90
5578;DHT22;2811;51.900;10.734;2024-02-28T00:36:21;4.60;99.90
5578;DHT22;2811;51.900;10.734;2024-02-28T00:38:48;4.60;99.90
5578;DHT22;2811;51.900;10.734;2024-02-28T00:41:15;4.70;99.90
5578;DHT22;2811;51.900;10.734;2024-02-28T00:43:41;4.70;99.90
5578;DHT22;2811;51.900;10.734;2024-02-28T00:46:08;4.70;99.90
5578;DHT22;2811;51.900;10.734;2024-02-28T00:48:38;4.50;99.90
5578;DHT22;2811;51.900;10.734;2024-02-28T00:51:05;4.80;99.90
5578;DHT22;2811;51.900;10.734;2024-02-28T00:53:33;4.70;99.90
5578;DHT22;2811;51.900;10.734;2024-02-28T00:56:00;4.70;99.90
5578;DHT22;2811;51.900;10.734;2024-02-28T00:58:26;4.50;99.90
5578;DHT22;2811;51.900;10.734;2024-02-28T01:00:55;4.50;99.90
5578;DHT22;2811;51.900;10.734;2024-02-28T01:03:22;4.60;99.90
5578;DHT22;2811;51.900;10.734;2024-02-28T01:05:50;4.60;99.90
5578;DHT22;2811;51.900;10.734;2024-02-28T01:08:17;4.50;99.90
5578;DHT22;2811;51.900;10.734;2024-02-28T01:10:43;4.50;99.90
5578;DHT22;2811;51.900;10.734;2024-02-28T01:13:10;4.60;99.90
5578;DHT22;2811;51.900;10.734;2024-02-28T01:15:37;4.60;99.90
5578;DHT22;2811;51.900;10.734;2024-02-28T01:18:05;4.60;99.90
5578;DHT22;2811;51.900;10.734;2024-02-28T01:20:32;4.60;99.90
5578;DHT22;2811;51.900;10.734;2024-02-28T01:23:00;4.90;99.90
5578;DHT22;2811;51.900;10.734;2024-02-28T01:25:26;5.00;99.90
5578;DHT22;2811;51.900;10.734;2024-02-28T01:27:53;5.00;99.90
5578;DHT22;2811;51.900;10.734;2024-02-28T01:30:21;4.90;99.90
5578;DHT22;2811;51.900;10.734;2024-02-28T01:32:47;4.80;99.90
5578;DHT22;2811;51.900;10.734;2024-02-28T01:35:14;4.90;99.90
5578;DHT22;2811;51.900;10.734;2024-02-28T01:37:41;5.00;99.90
5578;DHT22;2811;51.900;10.734;2024-02-28T01:40:10;5.00;99.90
5578;DHT22;2811;51.900;10.734;2024-02-28T01:42:37;5.00;99.90
5578;DHT22;2811;51.900;10.734;2024-02-28T01:45:04;5.00;99.90
5578;DHT22;2811;51.900;10.734;2024-02-28T01:47:31;5.00;99.90
5578;DHT22;2811;51.900;10.734;2024-02-28T01:49:58;4.90;99.90
5578;DHT22;2811;51.900;10.734;2024-02-28T01:52:25;4.90;99.90
5578;DHT22;2811;51.900;10.734;2024-02-28T01:54:51;5.00;99.90
5578;DHT22;2811;51.900;10.734;2024-02-28T01:57:20;4.90;99.90
5578;DHT22;2811;51.900;10.734;2024-02-28T01:59:47;4.90;99.90
5578;DHT22;2811;51.900;10.734;2024-02-28T02:02:13;5.00;99.90
5578;DHT22;2811;51.900;10.734;2024-02-28T02:04:40;5.20;99.90
5578;DHT22;2811;51.900;10.734;2024-02-28T02:07:07;5.10;99.90
5578;DHT22;2811;51.900;10.734;2024-02-28T02:09:34;5.10;99.90
5578;DHT22;2811;51.900;10.734;2024-02-28T02:12:02;5.00;99.90
5578;DHT22;2811;51.900;10.734;2024-02-28T02:14:30;5.10;99.90
5578;DHT22;2811;51.900;10.734;2024-02-28T02:16:57;5.00;99.90
5578;DHT22;2811;51.900;10.734;2024-02-28T02:19:23;4.80;99.90
5578;DHT22;2811;51.900;10.734;2024-02-28T02:21:54;5.00;99.90
5578;DHT22;2811;51.900;10.734;2024-02-28T02:24:25;4.90;99.90
5578;DHT22;2811;51.900;10.734;2024-02-28T02:26:55;4.80;99.90
5578;DHT22;2811;51.900;10.734;2024-02-28T02:29:22;4.60;99.90
5578;DHT22;2811;51.900;10.734;2024-02-28T02:31:48;4.60;99.90
5578;DHT22;2811;51.900;10.734;2024-02-28T02:34:15;4.40;99.90
5578;DHT22;2811;51.900;10.734;2024-02-28T02:36:42;4.60;99.90
5578;DHT22;2811;51.900;10.734;2024-02-28T02:39:08;4.60;99.90
5578;DHT22;2811;51.900;10.734;2024-02-28T02:41:36;4.50;99.90
5578;DHT22;2811;51.900;10.734;2024-02-28T02:44:03;4.40;99.90
5578;DHT22;2811;51.900;10.734;2024-02-28T02:46:30;4.20;99.90
5578;DHT22;2811;51.900;10.734;2024-02-28T02:48:57;3.90;99.90
5578;DHT22;2811;51.900;10.734;2024-02-28T02:51:23;3.80;99.90
5578;DHT22;2811;51.900;10.734;2024-02-28T02:53:51;3.70;99.90
5578;DHT22;2811;51.900;10.734;2024-02-28T02:56:19;3.50;99.90
5578;DHT22;2811;51.900;10.734;2024-02-28T02:58:47;3.40;99.90
5578;DHT22;2811;51.900;10.734;2024-02-28T03:01:13;3.30;99.90
5578;DHT22;2811;51.900;10.734;2024-02-28T03:03:40;3.20;99.90
5578;DHT22;2811;51.900;10.734;2024-02-28T03:06:07;3.20;99.90
5578;DHT22;2811;51.900;10.734;2024-02-28T03:08:35;3.10;99.90
5578;DHT22;2811;51.900;10.734;2024-02-28T03:11:02;3.00;99.90
5578;DHT22;2811;51.900;10.734;2024-02-28T03:13:29;2.70;99.90
5578;DHT22;2811;51.900;10.734;2024-02-28T03:15:57;2.70;99.90
5578;DHT22;2811;51.900;10.734;2024-02-28T03:18:24;2.70;99.90
5578;DHT22;2811;51.900;10.734;2024-02-28T03:20:51;2.70;99.90
5578;DHT22;2811;51.900;10.734;2024-02-28T03:23:18;2.60;99.90
5578;DHT22;2811;51.900;10.734;2024-02-28T03:25:45;2.60;99.90
5578;DHT22;2811;51.900;10.734;2024-02-28T03:28:11;2.70;99.90
5578;DHT22;2811;51.900;10.734;2024-02-28T03:30:38;2.60;99.90
5578;DHT22;2811;51.900;10.734;2024-02-28T03:33:06;2.50;99.90
5578;DHT22;2811;51.900;10.734;2024-02-28T03:35:33;2.30;99.90
5578;DHT22;2811;51.900;10.734;2024-02-28T03:38:00;2.30;99.90
5578;DHT22;2811;51.900;10.734;2024-02-28T03:40:26;2.20;99.90
5578;DHT22;2811;51.900;10.734;2024-02-28T03:42:53;2.20;99.90
5578;DHT22;2811;51.900;10.734;2024-02-28T03:45:20;2.20;99.90
5578;DHT22;2811;51.900;10.734;2024-02-28T03:47:47;2.00;99.90
5578;DHT22;2811;51.900;10.734;2024-02-28T03:50:15;2.00;99.90
5578;DHT22;2811;51.900;10.734;2024-02-28T03:52:41;1.80;99.90
5578;DHT22;2811;51.900;10.734;2024-02-28T03:55:09;2.30;99.90
5578;DHT22;2811;51.900;10.734;2024-02-28T03:57:35;1.50;99.90
5578;DHT22;2811;51.900;10.734;2024-02-28T04:00:02;1.40;99.90
5578;DHT22;2811;51.900;10.734;2024-02-28T04:02:30;1.50;99.90
5578;DHT22;2811;51.900;10.734;2024-02-28T04:04:56;2.20;99.90
5578;DHT22;2811;51.900;10.734;2024-02-28T04:07:24;1.60;99.90
5578;DHT22;2811;51.900;10.734;2024-02-28T04:09:51;1.70;99.90
5578;DHT22;2811;51.900;10.734;2024-02-28T04:12:18;1.70;99.90
5578;DHT22;2811;51.900;10.734;2024-02-28T04:14:44;1.80;99.90
5578;DHT22;2811;51.900;10.734;2024-02-28T04:17:11;1.80;99.90
5578;DHT22;2811;51.900;10.734;2024-02-28T04:19:38;1.90;99.90
5578;DHT22;2811;51.900;10.734;2024-02-28T04:22:05;1.80;99.90
5578;DHT22;2811;51.900;10.734;2024-02-28T04:24:33;1.70;99.90
5578;DHT22;2811;51.900;10.734;2024-02-28T04:26:59;1.50;99.90
5578;DHT22;2811;51.900;10.734;2024-02-28T04:29:28;1.30;99.90
5578;DHT22;2811;51.900;10.734;2024-02-28T04:31:55;1.20;99.90
5578;DHT22;2811;51.900;10.734;2024-02-28T04:34:22;1.20;99.90
5578;DHT22;2811;51.900;10.734;2024-02-28T04:36:48;1.40;99.90
5578;DHT22;2811;51.900;10.734;2024-02-28T04:39:15;1.50;99.90
5578;DHT22;2811;51.900;10.734;2024-02-28T04:41:43;1.50;99.90
5578;DHT22;2811;51.900;10.734;2024-02-28T04:44:10;1.30;99.90
5578;DHT22;2811;51.900;10.734;2024-02-28T04:46:37;1.30;99.90
5578;DHT22;2811;51.900;10.734;2024-02-28T04:49:04;1.10;99.90
5578;DHT22;2811;51.900;10.734;2024-02-28T04:51:30;1.40;99.90
5578;DHT22;2811;51.900;10.734;2024-02-28T04:53:57;1.00;99.90
5578;DHT22;2811;51.900;10.734;2024-02-28T04:56:24;1.00;99.90
5578;DHT22;2811;51.900;10.734;2024-02-28T04:58:52;1.00;99.90
5578;DHT22;2811;51.900;10.734;2024-02-28T05:01:18;1.00;99.90
5578;DHT22;2811;51.900;10.734;2024-02-28T05:03:45;1.00;99.90
5578;DHT22;2811;51.900;10.734;2024-02-28T05:06:12;1.10;99.90
5578;DHT22;2811;51.900;10.734;2024-02-28T05:08:39;1.30;99.90
5578;DHT22;2811;51.900;10.734;2024-02-28T05:11:05;0.90;99.90
5578;DHT22;2811;51.900;10.734;2024-02-28T05:13:32;1.00;99.90
5578;DHT22;2811;51.900;10.734;2024-02-28T05:16:00;1.00;99.90
5578;DHT22;2811;51.900;10.734;2024-02-28T05:18:26;1.10;99.90
5578;DHT22;2811;51.900;10.734;2024-02-28T05:20:53;0.90;99.90
5578;DHT22;2811;51.900;10.734;2024-02-28T05:23:20;0.90;99.90
5578;DHT22;2811;51.900;10.734;2024-02-28T05:25:47;1.10;99.90
5578;DHT22;2811;51.900;10.734;2024-02-28T05:28:13;0.60;99.90
5578;DHT22;2811;51.900;10.734;2024-02-28T05:30:41;1.20;99.90
5578;DHT22;2811;51.900;10.734;2024-02-28T05:33:08;0.80;99.90
5578;DHT22;2811;51.900;10.734;2024-02-28T05:35:37;1.00;99.90
5578;DHT22;2811;51.900;10.734;2024-02-28T05:38:04;1.20;99.90
5578;DHT22;2811;51.900;10.734;2024-02-28T05:40:30;1.10;99.90
5578;DHT22;2811;51.900;10.734;2024-02-28T05:42:57;1.10;99.90
5578;DHT22;2811;51.900;10.734;2024-02-28T05:45:23;1.10;99.90
5578;DHT22;2811;51.900;10.734;2024-02-28T05:47:50;1.10;99.90
5578;DHT22;2811;51.900;10.734;2024-02-28T05:50:18;1.10;99.90
5578;DHT22;2811;51.900;10.734;2024-02-28T05:52:45;1.20;99.90
5578;DHT22;2811;51.900;10.734;2024-02-28T05:55:11;1.30;99.90
5578;DHT22;2811;51.900;10.734;2024-02-28T05:57:38;1.30;99.90
5578;DHT22;2811;51.900;10.734;2024-02-28T06:00:06;1.30;99.90
5578;DHT22;2811;51.900;10.734;2024-02-28T06:02:35;1.40;99.90
5578;DHT22;2811;51.900;10.734;2024-02-28T06:05:02;1.40;99.90
5578;DHT22;2811;51.900;10.734;2024-02-28T06:07:30;1.40;99.90
5578;DHT22;2811;51.900;10.734;2024-02-28T06:09:57;1.50;99.90
5578;DHT22;2811;51.900;10.734;2024-02-28T06:12:23;1.50;99.90
5578;DHT22;2811;51.900;10.734;2024-02-28T06:14:50;1.40;99.90
5578;DHT22;2811;51.900;10.734;2024-02-28T06:17:17;1.50;99.90
5578;DHT22;2811;51.900;10.734;2024-02-28T06:19:43;1.60;99.90
5578;DHT22;2811;51.900;10.734;2024-02-28T06:22:10;1.50;99.90
5578;DHT22;2811;51.900;10.734;2024-02-28T06:24:38;1.50;99.90
5578;DHT22;2811;51.900;10.734;2024-02-28T06:27:05;1.60;99.90
5578;DHT22;2811;51.900;10.734;2024-02-28T06:29:37;1.70;99.90
5578;DHT22;2811;51.900;10.734;2024-02-28T06:32:04;1.80;99.90
5578;DHT22;2811;51.900;10.734;2024-02-28T06:34:31;1.30;99.90
5578;DHT22;2811;51.900;10.734;2024-02-28T06:36:58;1.60;99.90
5578;DHT22;2811;51.900;10.734;2024-02-28T06:39:24;1.60;99.90
5578;DHT22;2811;51.900;10.734;2024-02-28T06:41:52;1.70;99.90
5578;DHT22;2811;51.900;10.734;2024-02-28T06:44:19;1.90;99.90
5578;DHT22;2811;51.900;10.734;2024-02-28T06:46:46;2.00;99.90
5578;DHT22;2811;51.900;10.734;2024-02-28T06:49:13;2.10;99.90
5578;DHT22;2811;51.900;10.734;2024-02-28T06:51:39;2.00;99.90
5578;DHT22;2811;51.900;10.734;2024-02-28T06:54:06;2.00;99.90
5578;DHT22;2811;51.900;10.734;2024-02-28T06:56:33;2.00;99.90
5578;DHT22;2811;51.900;10.734;2024-02-28T06:59:01;2.00;99.90
5578;DHT22;2811;51.900;10.734;2024-02-28T07:01:29;1.90;99.90
5578;DHT22;2811;51.900;10.734;2024-02-28T07:03:56;1.90;99.90
5578;DHT22;2811;51.900;10.734;2024-02-28T07:06:22;1.90;99.90
5578;DHT22;2811;51.900;10.734;2024-02-28T07:08:49;2.00;99.90
5578;DHT22;2811;51.900;10.734;2024-02-28T07:11:16;2.00;99.90
5578;DHT22;2811;51.900;10.734;2024-02-28T07:13:42;2.00;99.90
5578;DHT22;2811;51.900;10.734;2024-02-28T07:16:10;1.90;99.90
5578;DHT22;2811;51.900;10.734;2024-02-28T07:18:37;2.00;99.90
5578;DHT22;2811;51.900;10.734;2024-02-28T07:21:04;1.90;99.90
5578;DHT22;2811;51.900;10.734;2024-02-28T07:23:32;2.10;99.90
5578;DHT22;2811;51.900;10.734;2024-02-28T07:25:58;2.40;99.90
5578;DHT22;2811;51.900;10.734;2024-02-28T07:28:25;2.30;99.90
5578;DHT22;2811;51.900;10.734;2024-02-28T07:30:52;2.40;99.90
5578;DHT22;2811;51.900;10.734;2024-02-28T07:33:20;2.40;99.90
5578;DHT22;2811;51.900;10.734;2024-02-28T07:35:47;2.40;99.90
5578;DHT22;2811;51.900;10.734;2024-02-28T07:38:14;2.50;99.90
5578;DHT22;2811;51.900;10.734;2024-02-28T07:40:43;2.60;99.90
5578;DHT22;2811;51.900;10.734;2024-02-28T07:43:09;2.90;99.90
5578;DHT22;2811;51.900;10.734;2024-02-28T07:45:36;3.20;99.90
5578;DHT22;2811;51.900;10.734;2024-02-28T07:48:03;3.30;99.90
5578;DHT22;2811;51.900;10.734;2024-02-28T07:50:31;3.60;99.90
5578;DHT22;2811;51.900;10.734;2024-02-28T07:52:58;3.80;99.90
5578;DHT22;2811;51.900;10.734;2024-02-28T07:55:25;3.90;99.90
5578;DHT22;2811;51.900;10.734;2024-02-28T07:57:52;4.10;99.90
5578;DHT22;2811;51.900;10.734;2024-02-28T08:00:19;4.30;99.90
5578;DHT22;2811;51.900;10.734;2024-02-28T08:02:46;4.50;99.90
5578;DHT22;2811;51.900;10.734;2024-02-28T08:05:13;4.70;99.90
5578;DHT22;2811;51.900;10.734;2024-02-28T08:07:41;4.80;99.90
5578;DHT22;2811;51.900;10.734;2024-02-28T08:10:09;4.90;99.90
5578;DHT22;2811;51.900;10.734;2024-02-28T08:12:36;4.90;99.90
5578;DHT22;2811;51.900;10.734;2024-02-28T08:15:03;5.20;99.90
5578;DHT22;2811;51.900;10.734;2024-02-28T08:17:30;5.40;99.90
5578;DHT22;2811;51.900;10.734;2024-02-28T08:19:57;5.40;99.90
5578;DHT22;2811;51.900;10.734;2024-02-28T08:22:24;5.50;99.90
5578;DHT22;2811;51.900;10.734;2024-02-28T08:24:52;5.80;99.90
5578;DHT22;2811;51.900;10.734;2024-02-28T08:27:19;6.00;99.90
5578;DHT22;2811;51.900;10.734;2024-02-28T08:29:46;6.20;99.90
5578;DHT22;2811;51.900;10.734;2024-02-28T08:32:13;6.00;99.90
5578;DHT22;2811;51.900;10.734;2024-02-28T08:34:43;5.90;99.90
5578;DHT22;2811;51.900;10.734;2024-02-28T08:37:10;5.70;99.90
5578;DHT22;2811;51.900;10.734;2024-02-28T08:39:37;5.60;99.90
5578;DHT22;2811;51.900;10.734;2024-02-28T08:42:05;5.60;99.90
5578;DHT22;2811;51.900;10.734;2024-02-28T08:44:32;5.70;99.90
5578;DHT22;2811;51.900;10.734;2024-02-28T08:46:59;6.00;99.90
5578;DHT22;2811;51.900;10.734;2024-02-28T08:49:25;6.10;99.90
5578;DHT22;2811;51.900;10.734;2024-02-28T08:51:52;6.20;99.90
5578;DHT22;2811;51.900;10.734;2024-02-28T08:54:19;6.30;99.90
5578;DHT22;2811;51.900;10.734;2024-02-28T08:56:46;6.30;99.90
5578;DHT22;2811;51.900;10.734;2024-02-28T08:59:14;6.70;99.90
5578;DHT22;2811;51.900;10.734;2024-02-28T09:01:40;6.40;99.90
5578;DHT22;2811;51.900;10.734;2024-02-28T09:04:07;6.40;99.90
5578;DHT22;2811;51.900;10.734;2024-02-28T09:06:34;6.40;99.90
5578;DHT22;2811;51.900;10.734;2024-02-28T09:09:01;6.20;99.90
5578;DHT22;2811;51.900;10.734;2024-02-28T09:11:27;6.50;99.90
5578;DHT22;2811;51.900;10.734;2024-02-28T09:13:54;6.60;99.90
5578;DHT22;2811;51.900;10.734;2024-02-28T09:16:22;6.70;99.90
5578;DHT22;2811;51.900;10.734;2024-02-28T09:18:49;6.50;99.90
5578;DHT22;2811;51.900;10.734;2024-02-28T09:21:15;6.50;99.90
5578;DHT22;2811;51.900;10.734;2024-02-28T09:23:42;6.40;99.90
5578;DHT22;2811;51.900;10.734;2024-02-28T09:26:09;6.20;99.90
5578;DHT22;2811;51.900;10.734;2024-02-28T09:28:36;6.20;99.90
5578;DHT22;2811;51.900;10.734;2024-02-28T09:31:03;6.40;99.90
5578;DHT22;2811;51.900;10.734;2024-02-28T09:33:31;6.70;99.90
5578;DHT22;2811;51.900;10.734;2024-02-28T09:35:58;6.60;99.90
5578;DHT22;2811;51.900;10.734;2024-02-28T09:38:25;6.90;99.90
5578;DHT22;2811;51.900;10.734;2024-02-28T09:40:51;7.10;99.90
5578;DHT22;2811;51.900;10.734;2024-02-28T09:43:24;7.40;99.90
5578;DHT22;2811;51.900;10.734;2024-02-28T09:45:58;7.60;99.90
5578;DHT22;2811;51.900;10.734;2024-02-28T09:48:27;7.70;99.90
5578;DHT22;2811;51.900;10.734;2024-02-28T09:50:56;7.70;99.90
5578;DHT22;2811;51.900;10.734;2024-02-28T09:53:23;7.90;99.90
5578;DHT22;2811;51.900;10.734;2024-02-28T09:55:50;8.00;99.90
5578;DHT22;2811;51.900;10.734;2024-02-28T09:58:18;8.10;99.90
5578;DHT22;2811;51.900;10.734;2024-02-28T10:00:45;8.40;99.90
5578;DHT22;2811;51.900;10.734;2024-02-28T10:03:14;8.20;99.90
5578;DHT22;2811;51.900;10.734;2024-02-28T10:05:43;7.70;99.90
5578;DHT22;2811;51.900;10.734;2024-02-28T10:08:11;7.60;99.90
5578;DHT22;2811;51.900;10.734;2024-02-28T10:10:44;7.20;99.90
5578;DHT22;2811;51.900;10.734;2024-02-28T10:13:10;7.10;99.90
5578;DHT22;2811;51.900;10.734;2024-02-28T10:15:37;7.10;99.90
5578;DHT22;2811;51.900;10.734;2024-02-28T10:18:04;7.20;99.90
5578;DHT22;2811;51.900;10.734;2024-02-28T10:20:32;7.60;99.90
5578;DHT22;2811;51.900;10.734;2024-02-28T10:22:58;7.60;99.90
5578;DHT22;2811;51.900;10.734;2024-02-28T10:25:26;7.80;99.90
5578;DHT22;2811;51.900;10.734;2024-02-28T10:27:59;7.80;99.90
5578;DHT22;2811;51.900;10.734;2024-02-28T10:30:26;7.80;99.90
5578;DHT22;2811;51.900;10.734;2024-02-28T10:32:52;7.50;99.90
5578;DHT22;2811;51.900;10.734;2024-02-28T10:35:19;7.40;99.90
5578;DHT22;2811;51.900;10.734;2024-02-28T10:37:51;7.50;99.90
5578;DHT22;2811;51.900;10.734;2024-02-28T10:40:18;7.70;99.90
5578;DHT22;2811;51.900;10.734;2024-02-28T10:42:48;7.90;99.90
5578;DHT22;2811;51.900;10.734;2024-02-28T10:45:17;7.70;99.90
5578;DHT22;2811;51.900;10.734;2024-02-28T10:47:44;7.60;99.90
5578;DHT22;2811;51.900;10.734;2024-02-28T10:50:12;7.70;99.90
5578;DHT22;2811;51.900;10.734;2024-02-28T10:52:43;7.80;99.90
5578;DHT22;2811;51.900;10.734;2024-02-28T10:55:13;8.10;99.90
5578;DHT22;2811;51.900;10.734;2024-02-28T10:57:42;8.30;99.90
5578;DHT22;2811;51.900;10.734;2024-02-28T11:00:14;8.10;99.90
5578;DHT22;2811;51.900;10.734;2024-02-28T11:02:42;8.20;99.90
5578;DHT22;2811;51.900;10.734;2024-02-28T11:05:09;8.60;99.90
5578;DHT22;2811;51.900;10.734;2024-02-28T11:07:40;9.40;99.90
5578;DHT22;2811;51.900;10.734;2024-02-28T11:10:08;10.20;99.90
5578;DHT22;2811;51.900;10.734;2024-02-28T11:12:35;10.30;99.90
5578;DHT22;2811;51.900;10.734;2024-02-28T11:15:04;9.90;99.90
5578;DHT22;2811;51.900;10.734;2024-02-28T11:17:33;9.60;99.90
5578;DHT22;2811;51.900;10.734;2024-02-28T11:20:00;9.40;99.90
5578;DHT22;2811;51.900;10.734;2024-02-28T11:22:37;9.40;99.90
5578;DHT22;2811;51.900;10.734;2024-02-28T11:25:04;9.80;99.90
5578;DHT22;2811;51.900;10.734;2024-02-28T11:27:31;9.80;99.90
5578;DHT22;2811;51.900;10.734;2024-02-28T11:29:58;9.70;99.90
5578;DHT22;2811;51.900;10.734;2024-02-28T11:32:25;9.10;99.90
5578;DHT22;2811;51.900;10.734;2024-02-28T11:34:53;8.60;99.90
5578;DHT22;2811;51.900;10.734;2024-02-28T11:37:20;8.60;99.90
5578;DHT22;2811;51.900;10.734;2024-02-28T11:39:48;8.70;99.90
5578;DHT22;2811;51.900;10.734;2024-02-28T11:42:15;8.60;99.90
5578;DHT22;2811;51.900;10.734;2024-02-28T11:44:42;9.10;99.90
5578;DHT22;2811;51.900;10.734;2024-02-28T11:47:09;8.50;99.90
5578;DHT22;2811;51.900;10.734;2024-02-28T11:49:36;8.50;99.90
5578;DHT22;2811;51.900;10.734;2024-02-28T11:52:05;8.40;99.90
5578;DHT22;2811;51.900;10.734;2024-02-28T11:54:32;8.40;99.90
5578;DHT22;2811;51.900;10.734;2024-02-28T11:56:58;8.30;99.90
5578;DHT22;2811;51.900;10.734;2024-02-28T11:59:25;8.30;99.90
5578;DHT22;2811;51.900;10.734;2024-02-28T12:01:52;8.60;99.90
5578;DHT22;2811;51.900;10.734;2024-02-28T12:04:23;8.60;99.90
5578;DHT22;2811;51.900;10.734;2024-02-28T12:06:50;8.50;99.90
5578;DHT22;2811;51.900;10.734;2024-02-28T12:09:18;8.40;99.90
5578;DHT22;2811;51.900;10.734;2024-02-28T12:11:46;8.40;99.90
5578;DHT22;2811;51.900;10.734;2024-02-28T12:14:13;8.40;99.90
5578;DHT22;2811;51.900;10.734;2024-02-28T12:16:40;8.60;99.90
5578;DHT22;2811;51.900;10.734;2024-02-28T12:19:07;8.80;99.90
5578;DHT22;2811;51.900;10.734;2024-02-28T12:21:35;8.80;99.90
5578;DHT22;2811;51.900;10.734;2024-02-28T12:24:04;8.60;99.90
5578;DHT22;2811;51.900;10.734;2024-02-28T12:26:32;9.10;99.90
5578;DHT22;2811;51.900;10.734;2024-02-28T12:28:59;9.50;99.90
5578;DHT22;2811;51.900;10.734;2024-02-28T12:31:26;9.50;99.90
5578;DHT22;2811;51.900;10.734;2024-02-28T12:33:53;9.20;99.90
5578;DHT22;2811;51.900;10.734;2024-02-28T12:36:20;9.20;99.90
5578;DHT22;2811;51.900;10.734;2024-02-28T12:38:47;9.30;99.90
5578;DHT22;2811;51.900;10.734;2024-02-28T12:41:14;9.60;99.90
5578;DHT22;2811;51.900;10.734;2024-02-28T12:43:42;9.30;99.90
5578;DHT22;2811;51.900;10.734;2024-02-28T12:46:09;9.10;99.90
5578;DHT22;2811;51.900;10.734;2024-02-28T12:48:37;8.80;99.90
5578;DHT22;2811;51.900;10.734;2024-02-28T12:51:04;8.60;99.90
5578;DHT22;2811;51.900;10.734;2024-02-28T12:53:32;8.40;99.90
5578;DHT22;2811;51.900;10.734;2024-02-28T12:55:58;8.40;99.90
5578;DHT22;2811;51.900;10.734;2024-02-28T12:58:25;8.50;99.90
5578;DHT22;2811;51.900;10.734;2024-02-28T13:00:53;8.60;99.90
5578;DHT22;2811;51.900;10.734;2024-02-28T13:03:20;8.40;99.90
5578;DHT22;2811;51.900;10.734;2024-02-28T13:05:47;8.30;99.90
5578;DHT22;2811;51.900;10.734;2024-02-28T13:08:13;8.20;99.90
5578;DHT22;2811;51.900;10.734;2024-02-28T13:10:40;8.20;99.90
5578;DHT22;2811;51.900;10.734;2024-02-28T13:13:07;8.10;99.90
5578;DHT22;2811;51.900;10.734;2024-02-28T13:15:34;8.20;99.90
5578;DHT22;2811;51.900;10.734;2024-02-28T13:18:02;8.10;99.90
5578;DHT22;2811;51.900;10.734;2024-02-28T13:20:33;8.10;99.90
5578;DHT22;2811;51.900;10.734;2024-02-28T13:23:00;8.10;99.90
5578;DHT22;2811;51.900;10.734;2024-02-28T13:25:26;8.10;99.90
5578;DHT22;2811;51.900;10.734;2024-02-28T13:27:53;8.20;99.90
5578;DHT22;2811;51.900;10.734;2024-02-28T13:30:20;8.40;99.90
5578;DHT22;2811;51.900;10.734;2024-02-28T13:32:47;8.40;99.90
5578;DHT22;2811;51.900;10.734;2024-02-28T13:35:15;8.30;99.90
5578;DHT22;2811;51.900;10.734;2024-02-28T13:37:42;8.30;99.90
5578;DHT22;2811;51.900;10.734;2024-02-28T13:40:09;8.20;99.90
5578;DHT22;2811;51.900;10.734;2024-02-28T13:42:37;8.20;99.90
5578;DHT22;2811;51.900;10.734;2024-02-28T13:45:05;8.20;99.90
5578;DHT22;2811;51.900;10.734;2024-02-28T13:47:33;8.50;99.90
5578;DHT22;2811;51.900;10.734;2024-02-28T13:50:00;8.50;99.90
5578;DHT22;2811;51.900;10.734;2024-02-28T13:52:28;8.40;99.90
5578;DHT22;2811;51.900;10.734;2024-02-28T13:54:54;8.50;99.90
5578;DHT22;2811;51.900;10.734;2024-02-28T13:57:21;8.70;99.90
5578;DHT22;2811;51.900;10.734;2024-02-28T13:59:48;8.70;99.90
5578;DHT22;2811;51.900;10.734;2024-02-28T14:02:16;8.80;99.90
5578;DHT22;2811;51.900;10.734;2024-02-28T14:04:43;8.70;99.90
5578;DHT22;2811;51.900;10.734;2024-02-28T14:07:14;8.60;99.90
5578;DHT22;2811;51.900;10.734;2024-02-28T14:09:43;8.70;99.90
5578;DHT22;2811;51.900;10.734;2024-02-28T14:12:10;8.70;99.90
5578;DHT22;2811;51.900;10.734;2024-02-28T14:14:37;8.50;99.90
5578;DHT22;2811;51.900;10.734;2024-02-28T14:17:05;8.50;99.90
5578;DHT22;2811;51.900;10.734;2024-02-28T14:19:31;8.40;99.90
5578;DHT22;2811;51.900;10.734;2024-02-28T14:21:59;8.70;99.90
5578;DHT22;2811;51.900;10.734;2024-02-28T14:24:26;8.60;99.90
5578;DHT22;2811;51.900;10.734;2024-02-28T14:26:54;8.60;99.90
5578;DHT22;2811;51.900;10.734;2024-02-28T14:29:21;8.60;99.90
5578;DHT22;2811;51.900;10.734;2024-02-28T14:31:47;8.80;99.90
5578;DHT22;2811;51.900;10.734;2024-02-28T14:34:14;8.90;99.90
5578;DHT22;2811;51.900;10.734;2024-02-28T14:36:41;8.70;99.90
5578;DHT22;2811;51.900;10.734;2024-02-28T14:39:07;8.70;99.90
5578;DHT22;2811;51.900;10.734;2024-02-28T14:41:41;8.80;99.90
5578;DHT22;2811;51.900;10.734;2024-02-28T14:44:10;8.90;99.90
5578;DHT22;2811;51.900;10.734;2024-02-28T14:46:37;8.90;99.90
5578;DHT22;2811;51.900;10.734;2024-02-28T14:49:03;8.80;99.90
5578;DHT22;2811;51.900;10.734;2024-02-28T14:51:30;8.70;99.90
5578;DHT22;2811;51.900;10.734;2024-02-28T14:53:58;8.70;99.90
5578;DHT22;2811;51.900;10.734;2024-02-28T14:56:25;8.60;99.90
5578;DHT22;2811;51.900;10.734;2024-02-28T14:58:53;8.70;99.90
5578;DHT22;2811;51.900;10.734;2024-02-28T15:01:21;8.90;99.90
5578;DHT22;2811;51.900;10.734;2024-02-28T15:03:49;8.90;99.90
5578;DHT22;2811;51.900;10.734;2024-02-28T15:06:15;8.90;99.90
5578;DHT22;2811;51.900;10.734;2024-02-28T15:08:42;8.90;99.90
5578;DHT22;2811;51.900;10.734;2024-02-28T15:11:09;8.90;99.90
5578;DHT22;2811;51.900;10.734;2024-02-28T15:13:36;8.80;99.90
5578;DHT22;2811;51.900;10.734;2024-02-28T15:16:03;8.50;99.90
5578;DHT22;2811;51.900;10.734;2024-02-28T15:18:31;8.40;99.90
5578;DHT22;2811;51.900;10.734;2024-02-28T15:20:58;8.30;99.90
5578;DHT22;2811;51.900;10.734;2024-02-28T15:23:25;8.20;99.90
5578;DHT22;2811;51.900;10.734;2024-02-28T15:25:51;8.30;99.90
5578;DHT22;2811;51.900;10.734;2024-02-28T15:28:19;8.20;99.90
5578;DHT22;2811;51.900;10.734;2024-02-28T15:30:46;8.20;99.90
5578;DHT22;2811;51.900;10.734;2024-02-28T15:33:13;8.20;99.90
5578;DHT22;2811;51.900;10.734;2024-02-28T15:35:41;8.40;99.90
5578;DHT22;2811;51.900;10.734;2024-02-28T15:38:08;8.20;99.90
5578;DHT22;2811;51.900;10.734;2024-02-28T15:40:35;8.10;99.90
5578;DHT22;2811;51.900;10.734;2024-02-28T15:43:01;8.10;99.90
5578;DHT22;2811;51.900;10.734;2024-02-28T15:45:28;8.10;99.90
5578;DHT22;2811;51.900;10.734;2024-02-28T15:47:55;8.30;99.90
5578;DHT22;2811;51.900;10.734;2024-02-28T15:50:23;8.20;99.90
5578;DHT22;2811;51.900;10.734;2024-02-28T15:52:51;8.00;99.90
5578;DHT22;2811;51.900;10.734;2024-02-28T15:55:19;8.00;99.90
5578;DHT22;2811;51.900;10.734;2024-02-28T15:57:47;7.80;99.90
5578;DHT22;2811;51.900;10.734;2024-02-28T16:00:14;7.90;99.90
5578;DHT22;2811;51.900;10.734;2024-02-28T16:02:41;7.90;99.90